Taurus Leader — 9V3259 — position and weather

sailwx.info

Track history (hours):
 
Tides and Currents Weather Stations Pressure Air Temp Water Temp Dewpoint Dewpoint Depression Visibility Wind Speed Wind Dir Waves Ship Positions

Taurus Leader

Last reported at 2018-Aug-14 03:31 UTC. Time now 2018-Aug-14 07:01 UTC.
Position N 38°56' E 025°31'.

Length 199 m; draft 9.7 m.

Type: Cargo ship. MMSI: 566095000.

Date/timePositionNaut miles runAvg speedWind from/ knotsBaromVisibWave heightAir tempDewpointWater temp
2018-Aug-14 03:31N 38°56' E 025°31'014.7
2018-Aug-14 03:30N 38°56' E 025°31'714.7
2018-Aug-14 03:00N 38°48' E 025°28'714.7
2018-Aug-14 02:30N 38°41' E 025°26'5014.7
2018-Aug-13 23:06N 37°52' E 025°38'115.2
2018-Aug-13 23:00N 37°51' E 025°39'815.0
2018-Aug-13 22:30N 37°44' E 025°43'714.8
2018-Aug-13 22:00N 37°37' E 025°46'714.7
2018-Aug-13 21:30N 37°31' E 025°50'815.0
2018-Aug-13 21:00N 37°24' E 025°54'  
2018-Aug-11 15:37N 31°36' E 032°10'213.8
2018-Aug-11 15:30N 31°34' E 032°12'1512.3
2018-Aug-11 14:17N 31°24' E 032°24'413.9
2018-Aug-11 14:00N 31°20' E 032°23'1010.2
2018-Aug-11 13:02N 31°10' E 032°20'0 9.3
2018-Aug-11 13:01N 31°10' E 032°20'5 9.9
2018-Aug-11 12:29N 31°05' E 032°19'  
Track history (hours):
 
Tides and Currents Weather Stations Pressure Air Temp Water Temp Dewpoint Dewpoint Depression Visibility Wind Speed Wind Dir Waves Ship Positions

Taurus Leader

Last reported at 2018-Aug-14 03:31 UTC. Time now 2018-Aug-14 07:01 UTC.
Position N 38°56' E 025°31'.

Length 199 m; draft 9.7 m.

Type: Cargo ship. MMSI: 566095000.

Date/timePositionNaut miles runAvg speedWind from/ knotsBaromVisibWave heightAir tempDewpointWater temp
2018-Aug-14 03:31N 38°56' E 025°31'014.7
2018-Aug-14 03:30N 38°56' E 025°31'714.7
2018-Aug-14 03:00N 38°48' E 025°28'714.7
2018-Aug-14 02:30N 38°41' E 025°26'5014.7
2018-Aug-13 23:06N 37°52' E 025°38'115.2
2018-Aug-13 23:00N 37°51' E 025°39'815.0
2018-Aug-13 22:30N 37°44' E 025°43'714.8
2018-Aug-13 22:00N 37°37' E 025°46'714.7
2018-Aug-13 21:30N 37°31' E 025°50'815.0
2018-Aug-13 21:00N 37°24' E 025°54'  
2018-Aug-11 15:37N 31°36' E 032°10'213.8
2018-Aug-11 15:30N 31°34' E 032°12'1512.3
2018-Aug-11 14:17N 31°24' E 032°24'413.9
2018-Aug-11 14:00N 31°20' E 032°23'1010.2
2018-Aug-11 13:02N 31°10' E 032°20'0 9.3
2018-Aug-11 13:01N 31°10' E 032°20'5 9.9
2018-Aug-11 12:29N 31°05' E 032°19'  

Dump ship's entire track history